createdAt,value
2019-05-15T00:00:42.483Z,15.13
2019-05-15T00:03:16.091Z,15.06
2019-05-15T00:05:49.515Z,15.01
2019-05-15T00:08:21.468Z,15.01
2019-05-15T00:10:55.938Z,14.96
2019-05-15T00:13:28.272Z,14.88
2019-05-15T00:16:00.458Z,14.82
2019-05-15T00:18:32.261Z,14.79
2019-05-15T00:21:03.925Z,14.73
2019-05-15T00:23:35.793Z,14.68
2019-05-15T00:26:09.303Z,14.63
2019-05-15T00:28:40.955Z,14.55
2019-05-15T00:31:12.768Z,14.49
2019-05-15T00:33:48.112Z,14.42
2019-05-15T00:36:19.408Z,14.34
2019-05-15T00:38:51.278Z,14.27
2019-05-15T00:41:23.059Z,14.21
2019-05-15T00:43:54.878Z,14.26
2019-05-15T00:46:28.902Z,14.22
2019-05-15T00:49:00.079Z,14.18
2019-05-15T00:51:31.727Z,14.16
2019-05-15T00:54:03.439Z,14.13
2019-05-15T00:56:34.975Z,14.21
2019-05-15T00:59:08.378Z,14.29
2019-05-15T01:01:39.951Z,14.29
2019-05-15T01:04:11.675Z,14.18
2019-05-15T01:06:43.271Z,14.01
2019-05-15T01:09:14.958Z,13.96
2019-05-15T01:11:48.618Z,13.88
2019-05-15T01:14:19.839Z,13.92
2019-05-15T01:16:51.503Z,13.89
2019-05-15T01:19:23.248Z,13.82
2019-05-15T01:21:54.860Z,13.76
2019-05-15T01:24:28.242Z,13.75
2019-05-15T01:26:59.751Z,13.82
2019-05-15T01:29:41.872Z,13.82
2019-05-15T01:32:04.833Z,13.80
2019-05-15T01:34:38.410Z,13.76
2019-05-15T01:37:09.851Z,13.77
2019-05-15T01:39:41.501Z,13.86
2019-05-15T01:42:13.122Z,13.82
2019-05-15T01:44:44.781Z,13.72
2019-05-15T01:47:18.772Z,13.95
2019-05-15T01:49:54.187Z,14.00
2019-05-15T01:52:27.816Z,13.80
2019-05-15T01:54:59.152Z,13.84
2019-05-15T01:57:30.908Z,13.96
2019-05-15T02:00:02.548Z,13.97
2019-05-15T02:02:34.378Z,13.82
2019-05-15T02:05:08.461Z,13.76
2019-05-15T02:07:40.419Z,13.72
2019-05-15T02:10:12.209Z,13.71
2019-05-15T02:12:43.869Z,13.68
2019-05-15T02:15:15.404Z,13.69
2019-05-15T02:17:48.132Z,13.69
2019-05-15T02:20:19.878Z,13.70
2019-05-15T02:22:51.595Z,13.75
2019-05-15T02:25:23.206Z,13.78
2019-05-15T02:27:54.905Z,13.80
2019-05-15T02:30:30.258Z,13.78
2019-05-15T02:33:00.993Z,13.80
2019-05-15T02:35:32.603Z,13.90
2019-05-15T02:38:04.286Z,14.14
2019-05-15T02:40:35.892Z,14.41
2019-05-15T02:43:10.024Z,14.65
2019-05-15T02:45:42.385Z,14.83
2019-05-15T02:48:14.503Z,14.94
2019-05-15T02:50:49.824Z,15.00
2019-05-15T02:53:19.493Z,15.04
2019-05-15T02:55:51.180Z,14.92
2019-05-15T02:58:22.987Z,15.01
2019-05-15T03:00:54.579Z,15.22
2019-05-15T03:03:29.152Z,15.65
2019-05-15T03:06:00.317Z,16.10
2019-05-15T03:08:32.257Z,16.26
2019-05-15T03:11:03.838Z,16.58
2019-05-15T03:13:35.498Z,17.23
2019-05-15T03:16:10.097Z,17.57
2019-05-15T03:18:42.056Z,18.05
2019-05-15T03:21:13.669Z,18.38
2019-05-15T03:23:45.392Z,18.96
2019-05-15T03:26:19.746Z,19.41
2019-05-15T03:28:51.604Z,19.83
2019-05-15T03:31:43.525Z,20.33
2019-05-15T03:34:02.030Z,20.71
2019-05-15T03:36:31.707Z,21.11
2019-05-15T03:39:05.111Z,21.69
2019-05-15T03:41:39.239Z,22.58
2019-05-15T03:44:11.566Z,22.55
2019-05-15T03:46:43.240Z,22.55
2019-05-15T03:49:15.006Z,22.65
2019-05-15T03:51:49.725Z,23.12
2019-05-15T03:54:20.104Z,23.54
2019-05-15T03:56:51.737Z,23.79
2019-05-15T03:59:23.657Z,24.03
2019-05-15T04:01:55.431Z,24.09
2019-05-15T04:04:29.731Z,24.27
2019-05-15T04:07:00.704Z,24.67
2019-05-15T04:09:34.327Z,24.93
2019-05-15T04:12:09.427Z,25.46
2019-05-15T04:14:42.111Z,25.85
2019-05-15T04:17:13.746Z,25.68
2019-05-15T04:19:45.426Z,25.81
2019-05-15T04:22:19.802Z,25.78
2019-05-15T04:24:53.923Z,26.08
2019-05-15T04:27:28.976Z,26.68
2019-05-15T04:30:01.363Z,26.67
2019-05-15T04:32:33.132Z,27.00
2019-05-15T04:35:09.211Z,27.01
2019-05-15T04:37:41.494Z,27.64
2019-05-15T04:40:13.403Z,27.83
2019-05-15T04:42:45.153Z,28.26
2019-05-15T04:45:19.430Z,28.69
2019-05-15T04:47:51.980Z,28.63
2019-05-15T04:50:23.663Z,28.47
2019-05-15T04:52:59.024Z,28.61
2019-05-15T04:55:29.319Z,28.49
2019-05-15T04:58:02.171Z,28.70
2019-05-15T05:00:53.916Z,28.72
2019-05-15T05:03:29.216Z,28.68
2019-05-15T05:05:59.973Z,28.88
2019-05-15T05:08:31.783Z,28.71
2019-05-15T05:11:03.577Z,29.63
2019-05-15T05:13:35.245Z,29.43
2019-05-15T05:16:09.605Z,29.74
2019-05-15T05:18:41.636Z,29.53
2019-05-15T05:21:13.953Z,29.04
2019-05-15T05:23:48.348Z,29.22
2019-05-15T05:26:20.272Z,29.47
2019-05-15T05:28:52.014Z,29.60
2019-05-15T05:31:23.749Z,29.49
2019-05-15T05:33:57.724Z,29.48
2019-05-15T05:36:29.024Z,29.45
2019-05-15T05:39:01.553Z,29.18
2019-05-15T05:41:33.403Z,29.06
2019-05-15T05:44:05.138Z,28.08
2019-05-15T05:46:36.872Z,27.73
2019-05-15T05:49:08.478Z,27.49
2019-05-15T05:51:40.293Z,27.46
2019-05-15T05:54:11.953Z,27.44
2019-05-15T05:56:43.635Z,27.09
2019-05-15T05:59:15.469Z,27.11
2019-05-15T06:01:48.521Z,27.29
2019-05-15T06:04:21.375Z,26.82
2019-05-15T06:07:06.048Z,26.94
2019-05-15T06:09:32.583Z,27.24
2019-05-15T06:12:04.325Z,26.97
2019-05-15T06:14:38.059Z,27.20
2019-05-15T06:17:10.171Z,27.50
2019-05-15T06:19:41.850Z,27.95
2019-05-15T06:22:14.846Z,28.09
2019-05-15T06:24:49.167Z,28.06
2019-05-15T06:27:21.511Z,28.56
2019-05-15T06:29:53.166Z,28.70
2019-05-15T06:32:24.958Z,28.75
2019-05-15T06:34:57.903Z,28.62
2019-05-15T06:37:29.698Z,28.50
2019-05-15T06:40:02.182Z,29.07
2019-05-15T06:42:33.857Z,29.39
2019-05-15T06:45:08.261Z,29.90
2019-05-15T06:47:40.145Z,29.75
2019-05-15T06:50:12.967Z,30.13
2019-05-15T06:52:44.649Z,30.09
2019-05-15T06:55:18.285Z,30.37
2019-05-15T06:57:49.808Z,30.27
2019-05-15T07:00:21.463Z,30.47
2019-05-15T07:02:53.281Z,31.01
2019-05-15T07:05:25.063Z,31.43
2019-05-15T07:07:58.528Z,31.77
2019-05-15T07:10:30.279Z,31.81
2019-05-15T07:13:03.280Z,31.43
2019-05-15T07:15:35.039Z,31.29
2019-05-15T07:18:08.744Z,31.68
2019-05-15T07:20:40.093Z,31.73
2019-05-15T07:23:11.763Z,31.93
2019-05-15T07:25:43.521Z,31.84
2019-05-15T07:28:18.119Z,32.18
2019-05-15T07:30:49.915Z,32.48
2019-05-15T07:33:35.913Z,32.76
2019-05-15T07:35:55.130Z,32.43
2019-05-15T07:38:28.212Z,32.58
2019-05-15T07:41:04.309Z,32.49
2019-05-15T07:43:33.625Z,32.34
2019-05-15T07:46:08.104Z,32.71
2019-05-15T07:48:38.689Z,32.95
2019-05-15T07:51:11.687Z,32.35
2019-05-15T07:53:43.492Z,31.57
2019-05-15T07:56:15.530Z,30.68
2019-05-15T07:58:52.474Z,31.12
2019-05-15T08:01:20.793Z,31.75
2019-05-15T08:04:09.312Z,32.08
2019-05-15T08:06:25.781Z,32.70
2019-05-15T08:08:59.259Z,33.01
2019-05-15T08:11:30.913Z,33.42
2019-05-15T08:14:03.766Z,33.44
2019-05-15T08:16:35.648Z,32.74
2019-05-15T08:19:08.563Z,32.77
2019-05-15T08:21:40.616Z,32.70
2019-05-15T08:24:12.304Z,32.47
2019-05-15T08:26:45.654Z,31.96
2019-05-15T08:29:21.150Z,31.73
2019-05-15T08:31:50.852Z,30.97
2019-05-15T08:34:22.500Z,30.56
2019-05-15T08:36:55.206Z,30.76
2019-05-15T08:39:28.486Z,30.67
2019-05-15T08:42:00.282Z,30.29
2019-05-15T08:44:34.755Z,30.34
2019-05-15T08:47:08.168Z,30.04
2019-05-15T08:49:41.030Z,30.09
2019-05-15T08:52:14.166Z,30.30
2019-05-15T08:54:48.441Z,31.06
2019-05-15T08:57:20.479Z,31.57
2019-05-15T08:59:52.320Z,32.08
2019-05-15T09:02:23.862Z,32.45
2019-05-15T09:04:57.903Z,32.60
2019-05-15T09:07:28.907Z,32.51
2019-05-15T09:10:00.585Z,32.70
2019-05-15T09:12:32.192Z,32.47
2019-05-15T09:15:05.045Z,32.56
2019-05-15T09:17:39.568Z,32.83
2019-05-15T09:20:10.406Z,32.50
2019-05-15T09:22:42.926Z,32.61
2019-05-15T09:25:14.693Z,32.96
2019-05-15T09:27:46.102Z,33.02
2019-05-15T09:30:18.277Z,33.32
2019-05-15T09:32:50.205Z,32.32
2019-05-15T09:35:22.903Z,31.70
2019-05-15T09:37:54.547Z,31.17
2019-05-15T09:40:41.855Z,30.90
2019-05-15T09:43:00.748Z,30.41
2019-05-15T09:45:32.338Z,30.58
2019-05-15T09:48:03.970Z,30.58
2019-05-15T09:50:35.579Z,30.62
2019-05-15T09:53:09.284Z,30.47
2019-05-15T09:55:42.945Z,30.11
2019-05-15T09:58:14.551Z,30.32
2019-05-15T10:00:50.875Z,30.51
2019-05-15T10:03:19.423Z,30.59
2019-05-15T10:05:51.278Z,30.35
2019-05-15T10:08:29.033Z,30.39
2019-05-15T10:10:59.480Z,30.21
2019-05-15T10:13:31.133Z,30.19
2019-05-15T10:16:08.208Z,30.05
2019-05-15T10:18:39.209Z,29.95
2019-05-15T10:21:11.154Z,30.09
2019-05-15T10:23:42.715Z,29.82
2019-05-15T10:26:14.665Z,29.30
2019-05-15T10:28:49.012Z,29.20
2019-05-15T10:31:19.868Z,29.07
2019-05-15T10:33:51.652Z,29.23
2019-05-15T10:36:23.236Z,29.31
2019-05-15T10:38:54.928Z,29.45
2019-05-15T10:41:28.166Z,29.41
2019-05-15T10:44:00.488Z,29.20
2019-05-15T10:46:32.684Z,29.17
2019-05-15T10:49:04.340Z,29.20
2019-05-15T10:51:35.996Z,29.23
2019-05-15T10:54:08.581Z,29.28
2019-05-15T10:56:40.673Z,29.25
2019-05-15T10:59:12.488Z,29.23
2019-05-15T11:01:44.081Z,29.20
2019-05-15T11:04:18.013Z,29.25
2019-05-15T11:06:49.269Z,29.57
2019-05-15T11:09:22.279Z,30.03
2019-05-15T11:11:53.921Z,30.55
2019-05-15T11:14:28.472Z,30.89
2019-05-15T11:16:59.238Z,30.95
2019-05-15T11:19:36.018Z,31.24
2019-05-15T11:22:04.474Z,31.14
2019-05-15T11:24:38.541Z,31.30
2019-05-15T11:27:11.141Z,31.31
2019-05-15T11:29:42.809Z,31.33
2019-05-15T11:32:14.600Z,30.97
2019-05-15T11:34:49.096Z,30.59
2019-05-15T11:37:19.610Z,30.67
2019-05-15T11:39:51.256Z,30.42
2019-05-15T11:42:22.911Z,30.41
2019-05-15T11:44:54.676Z,30.65
2019-05-15T11:47:27.862Z,30.57
2019-05-15T11:49:59.879Z,30.44
2019-05-15T11:52:31.625Z,30.25
2019-05-15T11:55:03.153Z,30.08
2019-05-15T11:57:42.569Z,29.80
2019-05-15T12:00:14.943Z,29.68
2019-05-15T12:02:42.368Z,29.78
2019-05-15T12:05:14.265Z,29.94
2019-05-15T12:07:47.820Z,30.05
2019-05-15T12:10:19.243Z,30.15
2019-05-15T12:12:50.910Z,30.26
2019-05-15T12:15:22.594Z,30.23
2019-05-15T12:17:54.226Z,29.99
2019-05-15T12:20:28.335Z,30.03
2019-05-15T12:22:59.574Z,29.85
2019-05-15T12:25:32.140Z,29.92
2019-05-15T12:28:03.837Z,29.61
2019-05-15T12:30:35.473Z,29.72
2019-05-15T12:33:09.320Z,29.77
2019-05-15T12:35:40.497Z,29.69
2019-05-15T12:38:12.090Z,29.62
2019-05-15T13:01:17.553Z,28.64
2019-05-15T13:03:43.597Z,28.43
2019-05-15T13:06:15.159Z,28.48
2019-05-15T13:08:48.882Z,28.44
2019-05-15T13:11:20.061Z,28.51
2019-05-15T13:13:51.612Z,28.41
2019-05-15T13:16:23.450Z,28.36
2019-05-15T13:18:58.823Z,28.36
2019-05-15T13:21:30.797Z,28.23
2019-05-15T13:24:02.467Z,28.47
2019-05-15T13:26:34.171Z,28.80
2019-05-15T13:29:05.908Z,29.06
2019-05-15T13:31:38.253Z,29.10
2019-05-15T13:34:10.530Z,29.20
2019-05-15T13:36:42.069Z,29.42
2019-05-15T13:39:13.813Z,29.56
2019-05-15T13:41:48.175Z,29.62
2019-05-15T13:44:19.097Z,29.59
2019-05-15T13:46:50.720Z,29.42
2019-05-15T13:49:22.452Z,29.36
2019-05-15T13:51:54.044Z,29.31
2019-05-15T13:54:25.714Z,29.26
2019-05-15T13:56:58.212Z,29.23
2019-05-15T13:59:30.257Z,29.08
2019-05-15T14:02:01.913Z,29.14
2019-05-15T14:04:33.670Z,28.76
2019-05-15T14:07:05.371Z,28.65
2019-05-15T14:09:43.524Z,28.62
2019-05-15T14:12:12.391Z,28.68
2019-05-15T14:14:43.981Z,28.45
2019-05-15T14:17:16.547Z,28.22
2019-05-15T14:19:48.787Z,28.15
2019-05-15T14:22:20.301Z,28.12
2019-05-15T14:24:54.274Z,28.07
2019-05-15T14:27:28.371Z,28.08
2019-05-15T14:29:59.242Z,27.85
2019-05-15T14:32:38.495Z,27.68
2019-05-15T14:35:04.537Z,27.69
2019-05-15T14:37:36.131Z,27.59
2019-05-15T14:40:09.307Z,27.61
2019-05-15T14:42:41.297Z,27.55
2019-05-15T14:45:15.991Z,27.53
2019-05-15T14:47:49.281Z,27.53
2019-05-15T14:50:23.438Z,27.39
2019-05-15T14:52:55.159Z,27.32
2019-05-15T14:55:32.291Z,27.24
2019-05-15T14:58:00.250Z,27.18
2019-05-15T15:00:34.635Z,27.00
2019-05-15T15:03:05.483Z,26.87
2019-05-15T15:05:38.776Z,26.90
2019-05-15T15:08:24.125Z,26.79
2019-05-15T15:10:43.917Z,26.68
2019-05-15T15:13:15.571Z,26.63
2019-05-15T15:15:48.474Z,26.53
2019-05-15T15:18:21.913Z,26.50
2019-05-15T15:20:53.552Z,26.51
2019-05-15T15:23:25.156Z,26.48
2019-05-15T15:25:57.827Z,26.46
2019-05-15T15:28:29.940Z,26.42
2019-05-15T15:31:02.006Z,26.54
2019-05-15T15:33:33.653Z,26.41
2019-05-15T15:36:05.291Z,26.25
2019-05-15T15:38:43.177Z,26.14
2019-05-15T15:41:10.202Z,26.15
2019-05-15T15:43:41.946Z,26.10
2019-05-15T15:46:13.611Z,26.25
2019-05-15T15:48:48.373Z,26.49
2019-05-15T15:51:22.648Z,26.39
2019-05-15T15:53:56.509Z,26.26
2019-05-15T15:56:29.032Z,26.17
2019-05-15T15:59:01.111Z,26.09
2019-05-15T16:01:32.791Z,26.00
2019-05-15T16:04:08.345Z,25.86
2019-05-15T16:06:39.384Z,25.77
2019-05-15T16:09:11.018Z,25.68
2019-05-15T16:11:43.995Z,25.63
2019-05-15T16:14:17.708Z,25.57
2019-05-15T16:16:48.974Z,25.47
2019-05-15T16:19:20.578Z,25.40
2019-05-15T16:21:52.225Z,25.30
2019-05-15T16:24:23.838Z,25.17
2019-05-15T16:26:55.499Z,25.11
2019-05-15T16:29:29.987Z,25.01
2019-05-15T16:32:01.772Z,24.99
2019-05-15T16:34:39.111Z,24.92
2019-05-15T16:37:11.184Z,24.85
2019-05-15T16:39:42.842Z,24.76
2019-05-15T16:42:14.532Z,24.70
2019-05-15T16:44:48.941Z,24.66
2019-05-15T16:47:20.928Z,24.60
2019-05-15T16:49:52.599Z,24.55
2019-05-15T16:52:24.369Z,24.39
2019-05-15T16:54:58.113Z,24.26
2019-05-15T16:57:30.563Z,24.17
2019-05-15T17:00:10.027Z,24.12
2019-05-15T17:02:42.445Z,24.07
2019-05-15T17:05:14.947Z,24.05
2019-05-15T17:07:48.839Z,23.95
2019-05-15T17:10:20.442Z,23.82
2019-05-15T17:12:52.330Z,23.74
2019-05-15T17:15:23.946Z,23.70
2019-05-15T17:17:58.089Z,23.66
2019-05-15T17:20:29.082Z,23.57
2019-05-15T17:23:00.702Z,23.46
2019-05-15T17:25:34.949Z,23.35
2019-05-15T17:28:08.924Z,23.16
2019-05-15T17:30:40.949Z,22.97
2019-05-15T17:33:12.905Z,22.81
2019-05-15T17:35:44.558Z,22.66
2019-05-15T17:38:18.277Z,22.48
2019-05-15T17:40:50.265Z,22.45
2019-05-15T17:43:22.185Z,22.38
2019-05-15T17:45:53.867Z,22.31
2019-05-15T17:48:25.527Z,22.20
2019-05-15T17:50:59.080Z,22.02
2019-05-15T17:53:31.543Z,22.00
2019-05-15T17:56:07.044Z,21.92
2019-05-15T17:58:41.923Z,21.88
2019-05-15T18:01:14.213Z,21.85
2019-05-15T18:03:48.531Z,21.79
2019-05-15T18:06:21.111Z,21.67
2019-05-15T18:08:54.543Z,21.56
2019-05-15T18:11:28.206Z,21.53
2019-05-15T18:13:59.889Z,21.53
2019-05-15T18:16:31.469Z,21.51
2019-05-15T18:19:08.326Z,21.63
2019-05-15T18:21:41.631Z,21.73
2019-05-15T18:24:14.867Z,21.72
2019-05-15T18:26:49.025Z,21.55
2019-05-15T18:29:29.210Z,21.35
2019-05-15T18:32:05.059Z,21.13
2019-05-15T18:34:39.576Z,20.93
2019-05-15T18:37:20.511Z,20.83
2019-05-15T18:40:02.346Z,20.71
2019-05-15T18:42:29.446Z,20.63
2019-05-15T18:45:01.207Z,20.53
2019-05-15T18:47:34.936Z,20.43
2019-05-15T18:50:13.147Z,20.36
2019-05-15T18:52:45.809Z,20.30
2019-05-15T18:55:39.533Z,20.19
2019-05-15T18:58:11.470Z,20.11
2019-05-15T19:00:44.971Z,20.07
2019-05-15T19:03:22.209Z,20.10
2019-05-15T19:05:51.632Z,20.14
2019-05-15T19:08:23.403Z,20.11
2019-05-15T19:10:55.625Z,20.11
2019-05-15T19:13:28.304Z,20.09
2019-05-15T19:16:01.444Z,20.00
2019-05-15T19:18:33.200Z,19.90
2019-05-15T19:21:05.139Z,19.88
2019-05-15T19:23:38.164Z,19.85
2019-05-15T19:26:12.578Z,19.85
2019-05-15T19:28:44.249Z,19.73
2019-05-15T19:31:26.047Z,19.65
2019-05-15T19:33:50.212Z,19.63
2019-05-15T19:36:23.196Z,19.62
2019-05-15T19:38:54.819Z,19.73
2019-05-15T19:41:28.873Z,19.75
2019-05-15T19:44:03.222Z,19.62
2019-05-15T19:46:38.626Z,19.56
2019-05-15T19:49:10.892Z,19.53
2019-05-15T19:51:48.520Z,19.55
2019-05-15T19:54:21.606Z,19.48
2019-05-15T19:56:53.546Z,19.53
2019-05-15T19:59:25.225Z,19.67
2019-05-15T20:01:57.840Z,19.66
2019-05-15T20:04:31.260Z,19.58
2019-05-15T20:07:04.168Z,19.50
2019-05-15T20:09:39.109Z,19.49
2019-05-15T20:12:10.922Z,19.30
2019-05-15T20:14:42.746Z,19.22
2019-05-15T20:17:18.193Z,19.14
2019-05-15T20:19:49.558Z,19.08
2019-05-15T20:22:21.372Z,18.96
2019-05-15T20:24:53.124Z,18.90
2019-05-15T20:27:24.912Z,18.86
2019-05-15T20:29:56.757Z,18.80
2019-05-15T20:32:28.433Z,18.95
2019-05-15T20:35:00.150Z,19.11
2019-05-15T20:37:31.919Z,19.12
2019-05-15T20:40:05.068Z,19.09
2019-05-15T20:42:37.989Z,19.17
2019-05-15T20:45:12.269Z,19.26
2019-05-15T20:47:43.703Z,19.28
2019-05-15T20:50:15.286Z,19.20
2019-05-15T20:52:48.875Z,18.98
2019-05-15T20:55:20.304Z,18.84
2019-05-15T20:57:51.957Z,18.73
2019-05-15T21:00:26.027Z,18.59
2019-05-15T21:02:58.408Z,18.42
2019-05-15T21:05:29.958Z,18.25
2019-05-15T21:08:01.899Z,18.17
2019-05-15T21:10:33.498Z,18.05
2019-05-15T21:13:05.298Z,17.97
2019-05-15T21:15:37.248Z,17.88
2019-05-15T21:18:14.479Z,17.86
2019-05-15T21:20:42.360Z,17.84
2019-05-15T21:23:14.136Z,17.80
2019-05-15T21:25:48.294Z,17.78
2019-05-15T21:28:19.365Z,17.75
2019-05-15T21:30:51.102Z,17.73
2019-05-15T21:33:22.734Z,17.71
2019-05-15T21:35:55.262Z,17.68
2019-05-15T21:38:28.379Z,17.67
2019-05-15T21:41:00.184Z,17.57
2019-05-15T21:43:31.988Z,17.48
2019-05-15T21:46:03.747Z,17.46
2019-05-15T21:48:38.095Z,17.45
2019-05-15T21:51:11.852Z,17.72
2019-05-15T21:53:42.284Z,17.73
2019-05-15T21:56:13.876Z,17.66
2019-05-15T21:58:45.562Z,17.84
2019-05-15T22:01:19.681Z,18.14
2019-05-15T22:03:50.950Z,18.41
2019-05-15T22:06:22.605Z,18.57
2019-05-15T22:08:54.303Z,18.56
2019-05-15T22:11:29.566Z,18.59
2019-05-15T22:14:00.119Z,18.60
2019-05-15T22:16:31.749Z,18.60
2019-05-15T22:19:03.322Z,18.56
2019-05-15T22:21:34.958Z,18.55
2019-05-15T22:24:08.788Z,18.58
2019-05-15T22:26:40.064Z,18.57
2019-05-15T22:29:11.982Z,18.33
2019-05-15T22:31:43.615Z,18.11
2019-05-15T22:34:15.280Z,17.91
2019-05-15T22:36:50.598Z,17.85
2019-05-15T22:39:20.237Z,18.07
2019-05-15T22:41:51.835Z,18.46
2019-05-15T22:44:23.547Z,18.77
2019-05-15T22:46:55.180Z,18.94
2019-05-15T22:49:28.716Z,19.02
2019-05-15T22:52:00.181Z,18.91
2019-05-15T22:54:31.961Z,18.88
2019-05-15T22:57:03.859Z,18.90
2019-05-15T22:59:35.613Z,18.78
2019-05-15T23:02:09.187Z,18.39
2019-05-15T23:04:40.551Z,17.99
2019-05-15T23:07:12.692Z,17.74
2019-05-15T23:09:46.345Z,17.49
2019-05-15T23:12:19.672Z,17.37
2019-05-15T23:14:51.498Z,17.31
2019-05-15T23:17:23.093Z,17.21
2019-05-15T23:19:54.833Z,17.03
2019-05-15T23:22:27.914Z,16.97
2019-05-15T23:24:59.889Z,16.99
2019-05-15T23:27:31.534Z,17.18
2019-05-15T23:30:03.602Z,17.27
2019-05-15T23:32:35.346Z,17.38
2019-05-15T23:35:07.248Z,17.52
2019-05-15T23:37:39.412Z,17.79
2019-05-15T23:40:11.602Z,18.00
2019-05-15T23:42:43.313Z,18.03
2019-05-15T23:45:14.965Z,17.95
2019-05-15T23:47:48.604Z,17.86
2019-05-15T23:50:19.945Z,17.72
2019-05-15T23:52:51.524Z,17.61
2019-05-15T23:55:23.240Z,17.69
2019-05-15T23:57:54.911Z,17.81
